createdAt,value
2023-01-18T00:00:41.263Z,95476.25
2023-01-18T00:03:13.274Z,95467.75
2023-01-18T00:05:41.438Z,95460.97
2023-01-18T00:08:09.921Z,95456.69
2023-01-18T00:10:36.863Z,95454.00
2023-01-18T00:13:04.122Z,95450.25
2023-01-18T00:15:34.816Z,95441.44
2023-01-18T00:18:01.992Z,95438.81
2023-01-18T00:20:30.113Z,95443.94
2023-01-18T00:22:59.198Z,95449.19
2023-01-18T00:25:26.137Z,95468.75
2023-01-18T00:27:54.961Z,95464.34
2023-01-18T00:30:25.061Z,95474.56
2023-01-18T00:32:59.186Z,95471.84
2023-01-18T00:35:26.565Z,95477.38
2023-01-18T00:37:54.096Z,95481.84
2023-01-18T00:40:22.413Z,95464.06
2023-01-18T00:43:07.578Z,95463.84
2023-01-18T00:45:34.311Z,95466.97
2023-01-18T00:48:02.770Z,95461.66
2023-01-18T00:50:29.687Z,95471.66
2023-01-18T00:52:58.608Z,95478.75
2023-01-18T00:55:26.538Z,95478.28
2023-01-18T00:57:53.187Z,95482.00
2023-01-18T01:00:20.445Z,95490.72
2023-01-18T01:02:47.093Z,95490.19
2023-01-18T01:05:38.131Z,95486.72
2023-01-18T01:08:06.075Z,95480.44
2023-01-18T01:10:36.038Z,95482.19
2023-01-18T01:13:21.168Z,95476.50
2023-01-18T01:16:06.090Z,95483.03
2023-01-18T01:18:51.385Z,95474.63
2023-01-18T01:21:36.959Z,95478.84
2023-01-18T01:24:22.177Z,95474.72
2023-01-18T01:26:48.786Z,95465.25
2023-01-18T01:29:16.034Z,95458.72
2023-01-18T01:31:42.667Z,95466.00
2023-01-18T01:34:09.902Z,95472.00
2023-01-18T01:36:36.632Z,95476.59
2023-01-18T01:39:03.428Z,95479.31
2023-01-18T01:41:40.568Z,95485.41
2023-01-18T01:44:20.132Z,95484.09
2023-01-18T01:47:06.805Z,95479.44
2023-01-18T01:49:35.032Z,95472.88
2023-01-18T01:52:08.020Z,95487.84
2023-01-18T01:54:47.688Z,95478.75
2023-01-18T01:57:31.874Z,95478.22
2023-01-18T02:00:08.203Z,95477.72
2023-01-18T02:02:35.790Z,95476.50
2023-01-18T02:05:05.486Z,95470.69
2023-01-18T02:07:32.862Z,95470.81
2023-01-18T02:10:00.936Z,95468.56
2023-01-18T02:12:29.273Z,95463.41
2023-01-18T02:14:57.971Z,95469.41
2023-01-18T02:17:38.600Z,95484.56
2023-01-18T02:20:24.865Z,95473.91
2023-01-18T02:23:19.251Z,95482.97
2023-01-18T02:25:51.652Z,95499.16
2023-01-18T02:28:30.022Z,95509.56
2023-01-18T02:31:18.385Z,95501.41
2023-01-18T02:33:45.560Z,95496.16
2023-01-18T02:36:31.861Z,95497.59
2023-01-18T02:39:10.731Z,95487.41
2023-01-18T02:42:07.205Z,95484.38
2023-01-18T02:44:59.276Z,95475.78
2023-01-18T02:47:27.760Z,95471.09
2023-01-18T02:49:56.671Z,95474.00
2023-01-18T02:52:53.638Z,95471.09
2023-01-18T02:55:41.943Z,95480.97
2023-01-18T02:58:33.962Z,95457.91
2023-01-18T03:01:11.977Z,95466.59
2023-01-18T03:03:42.493Z,95474.56
2023-01-18T03:06:09.313Z,95452.19
2023-01-18T03:08:40.632Z,95462.75
2023-01-18T03:11:16.671Z,95464.16
2023-01-18T03:13:43.232Z,95471.53
2023-01-18T03:16:18.590Z,95481.28
2023-01-18T03:19:35.581Z,95479.88
2023-01-18T03:22:03.143Z,95466.69
2023-01-18T03:24:31.296Z,95464.91
2023-01-18T03:27:18.090Z,95459.22
2023-01-18T03:30:05.482Z,95463.78
2023-01-18T03:32:53.567Z,95459.84
2023-01-18T03:35:26.881Z,95459.84
2023-01-18T03:37:56.384Z,95460.69
2023-01-18T03:40:26.555Z,95454.16
2023-01-18T03:43:02.023Z,95463.44
2023-01-18T03:45:42.357Z,95469.69
2023-01-18T03:48:10.420Z,95467.00
2023-01-18T03:50:53.129Z,95473.34
2023-01-18T03:53:54.695Z,95492.06
2023-01-18T03:56:24.100Z,95482.47
2023-01-18T03:58:54.337Z,95484.72
2023-01-18T04:01:21.684Z,95478.38
2023-01-18T04:03:48.437Z,95469.22
2023-01-18T04:06:17.282Z,95469.59
2023-01-18T04:08:46.802Z,95475.03
2023-01-18T04:11:13.902Z,95476.50
2023-01-18T04:13:40.540Z,95477.88
2023-01-18T04:16:07.491Z,95488.22
2023-01-18T04:18:34.135Z,95496.78
2023-01-18T04:21:04.045Z,95508.09
2023-01-18T04:23:30.699Z,95519.47
2023-01-18T04:26:11.969Z,95518.38
2023-01-18T04:28:38.544Z,95506.69
2023-01-18T04:31:05.596Z,95497.63
2023-01-18T04:33:32.624Z,95486.97
2023-01-18T04:35:59.274Z,95492.94
2023-01-18T04:38:26.238Z,95524.84
2023-01-18T04:40:54.400Z,95528.09
2023-01-18T04:43:22.637Z,95529.34
2023-01-18T04:45:59.127Z,95515.38
2023-01-18T04:48:30.847Z,95538.41
2023-01-18T04:50:57.481Z,95553.41
2023-01-18T04:53:24.174Z,95578.31
2023-01-18T04:55:51.348Z,95574.09
2023-01-18T04:58:17.941Z,95537.88
2023-01-18T05:00:44.794Z,95515.06
2023-01-18T05:03:12.398Z,95527.72
2023-01-18T05:05:39.214Z,95563.53
2023-01-18T05:08:06.054Z,95596.56
2023-01-18T05:10:33.731Z,95594.31
2023-01-18T05:13:00.931Z,95587.94
2023-01-18T05:15:27.891Z,95582.03
2023-01-18T05:17:54.491Z,95578.47
2023-01-18T05:20:21.060Z,95587.56
2023-01-18T05:22:47.722Z,95583.84
2023-01-18T05:25:14.513Z,95589.63
2023-01-18T05:27:41.163Z,95592.84
2023-01-18T05:30:09.778Z,95597.97
2023-01-18T05:32:36.404Z,95593.28
2023-01-18T05:35:05.113Z,95581.22
2023-01-18T05:37:31.751Z,95554.56
2023-01-18T05:39:59.378Z,95545.38
2023-01-18T05:42:26.020Z,95552.00
2023-01-18T05:44:52.742Z,95551.75
2023-01-18T05:47:19.374Z,95554.13
2023-01-18T05:49:45.972Z,95559.66
2023-01-18T05:52:12.830Z,95561.34
2023-01-18T05:54:39.536Z,95565.84
2023-01-18T05:57:06.124Z,95567.88
2023-01-18T05:59:32.737Z,95563.97
2023-01-18T06:01:59.410Z,95558.25
2023-01-18T06:04:26.139Z,95561.91
2023-01-18T06:06:52.786Z,95563.97
2023-01-18T06:09:19.385Z,95566.34
2023-01-18T06:11:45.994Z,95559.22
2023-01-18T06:14:12.790Z,95563.78
2023-01-18T06:16:39.548Z,95547.16
2023-01-18T06:19:06.140Z,95539.38
2023-01-18T06:21:32.885Z,95554.16
2023-01-18T06:23:59.543Z,95566.06
2023-01-18T06:26:26.225Z,95568.78
2023-01-18T06:28:53.625Z,95566.72
2023-01-18T06:31:20.368Z,95573.63
2023-01-18T06:33:47.113Z,95572.72
2023-01-18T06:36:13.729Z,95576.91
2023-01-18T06:38:41.418Z,95580.41
2023-01-18T06:41:09.302Z,95581.06
2023-01-18T06:43:35.957Z,95583.22
2023-01-18T06:46:02.937Z,95584.72
2023-01-18T06:48:29.930Z,95582.00
2023-01-18T06:50:57.521Z,95580.22
2023-01-18T06:53:24.610Z,95572.25
2023-01-18T06:55:58.567Z,95586.13
2023-01-18T06:58:26.574Z,95590.41
2023-01-18T07:00:57.663Z,95586.03
2023-01-18T07:03:25.611Z,95584.34
2023-01-18T07:06:00.186Z,95584.22
2023-01-18T07:08:28.033Z,95581.53
2023-01-18T07:10:54.958Z,95586.78
2023-01-18T07:13:22.256Z,95573.56
2023-01-18T07:16:00.776Z,95581.22
2023-01-18T07:18:29.626Z,95584.38
2023-01-18T07:21:00.846Z,95597.47
2023-01-18T07:23:28.711Z,95588.97
2023-01-18T07:26:06.025Z,95589.47
2023-01-18T07:28:33.516Z,95590.75
2023-01-18T07:31:01.076Z,95601.59
2023-01-18T07:33:28.637Z,95593.47
2023-01-18T07:35:56.809Z,95594.13
2023-01-18T07:38:24.106Z,95595.50
2023-01-18T07:41:14.305Z,95614.50
2023-01-18T07:43:42.789Z,95597.28
2023-01-18T07:46:12.239Z,95608.53
2023-01-18T07:48:39.186Z,95603.09
2023-01-18T07:51:08.771Z,95597.69
2023-01-18T07:53:37.265Z,95608.06
2023-01-18T07:56:08.134Z,95613.13
2023-01-18T07:58:36.384Z,95602.16
2023-01-18T08:01:11.568Z,95596.91
2023-01-18T08:03:41.398Z,95605.06
2023-01-18T08:06:13.511Z,95608.81
2023-01-18T08:08:40.627Z,95616.78
2023-01-18T08:11:07.856Z,95614.81
2023-01-18T08:13:34.548Z,95636.44
2023-01-18T08:16:03.093Z,95624.66
2023-01-18T08:18:29.993Z,95635.59
2023-01-18T08:20:56.842Z,95631.84
2023-01-18T08:23:23.777Z,95632.78
2023-01-18T08:25:51.162Z,95623.94
2023-01-18T08:28:18.793Z,95644.06
2023-01-18T08:30:47.291Z,95649.13
2023-01-18T08:33:14.775Z,95651.19
2023-01-18T08:35:42.765Z,95654.50
2023-01-18T08:38:09.860Z,95661.16
2023-01-18T08:40:36.733Z,95678.41
2023-01-18T08:43:06.686Z,95665.34
2023-01-18T08:45:35.092Z,95654.59
2023-01-18T08:48:04.387Z,95644.28
2023-01-18T08:50:32.650Z,95661.06
2023-01-18T08:53:00.591Z,95666.06
2023-01-18T08:55:28.444Z,95669.34
2023-01-18T08:57:57.657Z,95675.97
2023-01-18T09:00:26.894Z,95687.00
2023-01-18T09:02:53.580Z,95693.00
2023-01-18T09:05:20.263Z,95681.41
2023-01-18T09:07:47.495Z,95677.88
2023-01-18T09:10:14.295Z,95682.19
2023-01-18T09:12:41.076Z,95685.56
2023-01-18T09:15:07.895Z,95709.75
2023-01-18T09:17:34.431Z,95695.34
2023-01-18T09:20:00.898Z,95687.34
2023-01-18T09:22:27.416Z,95672.94
2023-01-18T09:24:54.029Z,95674.28
2023-01-18T09:27:20.583Z,95667.16
2023-01-18T09:29:52.241Z,95669.69
2023-01-18T09:32:20.227Z,95675.03
2023-01-18T09:34:50.871Z,95668.31
2023-01-18T09:37:19.233Z,95678.72
2023-01-18T09:39:51.773Z,95680.63
2023-01-18T09:42:29.898Z,95680.84
2023-01-18T09:44:59.821Z,95692.94
2023-01-18T09:47:39.498Z,95677.78
2023-01-18T09:50:13.599Z,95684.81
2023-01-18T09:52:52.246Z,95695.16
2023-01-18T09:55:28.925Z,95678.41
2023-01-18T09:58:16.808Z,95692.97
2023-01-18T10:00:47.677Z,95702.22
2023-01-18T10:03:26.315Z,95706.84
2023-01-18T10:06:08.609Z,95721.13
2023-01-18T10:08:49.972Z,95736.53
2023-01-18T10:11:32.171Z,95742.53
2023-01-18T10:13:58.704Z,95740.00
2023-01-18T10:16:25.928Z,95740.94
2023-01-18T10:18:55.680Z,95747.19
2023-01-18T10:21:47.442Z,95762.69
2023-01-18T10:24:32.950Z,95782.91
2023-01-18T10:27:19.727Z,95789.09
2023-01-18T10:30:00.629Z,95816.31
2023-01-18T10:32:28.351Z,95820.78
2023-01-18T10:34:55.333Z,95830.47
2023-01-18T10:37:28.009Z,95831.88
2023-01-18T10:40:02.219Z,95826.94
2023-01-18T10:42:47.812Z,95817.44
2023-01-18T10:45:22.236Z,95742.25
2023-01-18T10:47:49.679Z,95765.19
2023-01-18T10:50:33.441Z,95739.53
2023-01-18T10:53:19.269Z,95756.81
2023-01-18T10:56:04.656Z,95775.06
2023-01-18T10:58:33.401Z,95784.66
2023-01-18T11:01:00.985Z,95787.53
2023-01-18T11:03:28.593Z,95782.19
2023-01-18T11:06:04.383Z,95773.63
2023-01-18T11:08:35.331Z,95766.91
2023-01-18T11:11:03.843Z,95759.97
2023-01-18T11:13:31.816Z,95751.38
2023-01-18T11:16:06.329Z,95750.66
2023-01-18T11:18:33.600Z,95752.59
2023-01-18T11:21:00.279Z,95739.25
2023-01-18T11:23:36.414Z,95745.72
2023-01-18T11:26:12.774Z,95736.63
2023-01-18T11:28:39.666Z,95743.19
2023-01-18T11:31:16.086Z,95717.00
2023-01-18T11:33:55.984Z,95730.56
2023-01-18T11:36:41.163Z,95732.69
2023-01-18T11:39:23.607Z,95733.13
2023-01-18T11:41:52.872Z,95750.47
2023-01-18T11:44:25.634Z,95748.91
2023-01-18T11:46:58.122Z,95744.72
2023-01-18T11:49:29.349Z,95754.81
2023-01-18T11:52:03.540Z,95758.22
2023-01-18T11:54:43.761Z,95749.41
2023-01-18T11:57:12.428Z,95762.94
2023-01-18T11:59:43.562Z,57215.63
2023-01-18T12:02:10.213Z,57215.63
2023-01-18T12:04:52.714Z,57215.63
2023-01-18T12:07:25.435Z,57215.63
2023-01-18T12:09:54.140Z,57215.63
2023-01-18T12:12:45.138Z,57215.63
2023-01-18T12:15:23.613Z,57215.63
2023-01-18T12:18:13.928Z,57215.63
2023-01-18T12:21:03.800Z,57215.63
2023-01-18T12:23:45.754Z,57215.63
2023-01-18T12:26:18.217Z,57215.63
2023-01-18T12:28:44.716Z,57215.63
2023-01-18T12:31:14.369Z,57215.63
2023-01-18T12:34:01.449Z,57215.63
2023-01-18T12:36:34.096Z,57215.63
2023-01-18T12:39:07.219Z,57215.63
2023-01-18T12:41:39.792Z,57215.63
2023-01-18T12:44:12.889Z,57215.63
2023-01-18T12:46:42.659Z,57215.63
2023-01-18T12:49:19.122Z,57215.63
2023-01-18T12:51:48.382Z,57215.63
2023-01-18T12:54:35.908Z,57215.63
2023-01-18T12:57:04.323Z,57215.63
2023-01-18T13:00:09.340Z,57215.63
2023-01-18T13:02:40.746Z,57215.63
2023-01-18T13:05:14.530Z,57215.63
2023-01-18T13:07:44.677Z,57215.63
2023-01-18T13:10:20.203Z,57215.63
2023-01-18T13:12:48.617Z,57215.63
2023-01-18T13:15:24.451Z,57215.63
2023-01-18T13:17:51.174Z,57215.63
2023-01-18T13:20:19.745Z,57215.63
2023-01-18T13:22:58.445Z,57215.63
2023-01-18T13:25:43.691Z,57215.63
2023-01-18T13:28:18.156Z,57215.63
2023-01-18T13:30:50.567Z,95753.69
2023-01-18T13:33:22.346Z,96068.94
2023-01-18T13:35:51.414Z,96057.91
2023-01-18T13:38:22.275Z,96077.56
2023-01-18T13:40:54.814Z,96070.47
2023-01-18T13:43:36.758Z,96091.03
2023-01-18T13:46:03.386Z,96082.84
2023-01-18T13:48:36.393Z,96096.84
2023-01-18T13:51:02.912Z,96093.25
2023-01-18T13:53:31.675Z,96092.94
2023-01-18T13:56:05.026Z,96099.03
2023-01-18T13:58:33.113Z,96109.28
2023-01-18T14:01:03.700Z,96115.63
2023-01-18T14:03:33.542Z,96117.72
2023-01-18T14:06:05.923Z,96127.22
2023-01-18T14:08:34.380Z,96125.56
2023-01-18T14:11:05.845Z,96132.50
2023-01-18T14:13:44.734Z,96136.81
2023-01-18T14:16:25.656Z,96142.66
2023-01-18T14:18:56.919Z,96149.06
2023-01-18T14:21:26.252Z,96157.09
2023-01-18T14:24:02.017Z,96172.38
2023-01-18T14:26:30.935Z,96168.69
2023-01-18T14:28:59.536Z,96170.16
2023-01-18T14:31:35.480Z,96180.13
2023-01-18T14:34:20.851Z,96182.88
2023-01-18T14:36:47.333Z,96177.03
2023-01-18T14:39:14.922Z,96179.25
2023-01-18T14:41:45.901Z,96177.44
2023-01-18T14:44:16.866Z,96175.41
2023-01-18T14:46:49.937Z,96173.56
2023-01-18T14:49:20.730Z,96186.53
2023-01-18T14:51:51.946Z,96197.94
2023-01-18T14:54:18.835Z,96196.31
2023-01-18T14:56:45.692Z,96200.56
2023-01-18T14:59:22.750Z,96198.69
2023-01-18T15:02:15.293Z,96188.84
2023-01-18T15:04:46.856Z,96200.50
2023-01-18T15:07:18.622Z,96202.22
2023-01-18T15:09:48.347Z,96211.69
2023-01-18T15:12:29.472Z,96214.13
2023-01-18T15:18:10.661Z,96226.28
2023-01-18T15:20:48.538Z,96232.19
2023-01-18T15:23:15.219Z,96240.81
2023-01-18T15:25:41.725Z,96244.00
2023-01-18T15:28:24.541Z,96238.31
2023-01-18T15:30:54.715Z,96243.75
2023-01-18T15:33:22.495Z,96257.94
2023-01-18T15:36:00.743Z,96269.25
2023-01-18T15:38:27.705Z,96273.34
2023-01-18T15:41:04.681Z,96274.00
2023-01-18T15:43:33.969Z,96272.94
2023-01-18T15:46:01.357Z,96277.00
2023-01-18T15:48:31.014Z,96283.59
2023-01-18T15:51:04.310Z,96281.28
2023-01-18T15:53:33.087Z,96278.91
2023-01-18T15:56:05.251Z,96290.59
2023-01-18T15:58:41.023Z,96291.25
2023-01-18T16:01:16.549Z,96300.13
2023-01-18T16:03:46.777Z,96297.00
2023-01-18T16:06:16.920Z,96304.28
2023-01-18T16:09:01.731Z,96309.91
2023-01-18T16:11:38.945Z,96305.16
2023-01-18T16:14:16.932Z,96306.00
2023-01-18T16:16:43.969Z,96303.53
2023-01-18T16:19:21.355Z,96302.13
2023-01-18T16:22:07.073Z,96311.47
2023-01-18T16:24:46.152Z,96317.97
2023-01-18T16:27:23.047Z,96311.16
2023-01-18T16:29:52.932Z,96317.25
2023-01-18T16:32:28.080Z,96322.81
2023-01-18T16:35:00.912Z,96331.16
2023-01-18T16:37:27.891Z,96327.91
2023-01-18T16:39:55.428Z,96337.69
2023-01-18T16:42:29.622Z,96327.69
2023-01-18T16:44:59.865Z,96340.75
2023-01-18T16:47:26.537Z,96349.09
2023-01-18T16:49:53.227Z,96344.31
2023-01-18T16:52:19.895Z,96358.13
2023-01-18T16:54:46.671Z,96361.59
2023-01-18T16:57:23.861Z,96361.59
2023-01-18T16:59:50.959Z,96363.47
2023-01-18T17:02:17.704Z,96361.44
2023-01-18T17:04:46.635Z,96350.13
2023-01-18T17:07:13.869Z,96342.03
2023-01-18T17:09:48.553Z,96347.88
2023-01-18T17:12:16.203Z,96353.16
2023-01-18T17:14:42.963Z,96354.09
2023-01-18T17:17:11.083Z,96355.44
2023-01-18T17:19:38.161Z,96355.72
2023-01-18T17:22:06.297Z,96352.41
2023-01-18T17:24:33.044Z,96357.59
2023-01-18T17:26:59.699Z,96353.41
2023-01-18T17:29:26.324Z,96361.09
2023-01-18T17:31:53.410Z,96369.19
2023-01-18T17:34:29.531Z,96371.56
2023-01-18T17:36:58.401Z,96375.41
2023-01-18T17:39:36.908Z,96366.66
2023-01-18T17:42:16.448Z,96361.41
2023-01-18T17:44:45.714Z,96368.47
2023-01-18T17:47:13.039Z,96378.53
2023-01-18T17:49:39.707Z,96387.09
2023-01-18T17:52:06.368Z,96391.41
2023-01-18T17:54:34.902Z,96401.09
2023-01-18T17:57:01.707Z,96409.69
2023-01-18T17:59:28.417Z,96416.69
2023-01-18T18:01:55.216Z,96429.16
2023-01-18T18:04:21.871Z,96442.47
2023-01-18T18:06:54.270Z,96442.72
2023-01-18T18:09:21.426Z,96436.81
2023-01-18T18:14:29.050Z,96430.81
2023-01-18T18:16:55.696Z,96436.09
2023-01-18T18:19:33.936Z,96443.81
2023-01-18T18:22:01.241Z,96439.38
2023-01-18T18:24:27.996Z,96433.44
2023-01-18T18:26:54.640Z,96440.44
2023-01-18T18:29:21.358Z,96440.72
2023-01-18T18:31:48.028Z,96446.13
2023-01-18T18:34:14.684Z,96449.19
2023-01-18T18:36:41.395Z,96448.34
2023-01-18T18:39:08.955Z,96445.69
2023-01-18T18:41:35.799Z,96428.13
2023-01-18T18:44:02.952Z,96429.56
2023-01-18T18:46:29.798Z,96446.78
2023-01-18T18:48:56.673Z,96439.88
2023-01-18T18:51:26.508Z,96432.31
2023-01-18T18:53:53.365Z,96444.16
2023-01-18T18:56:20.779Z,96439.56
2023-01-18T18:58:51.204Z,96422.91
2023-01-18T19:01:23.652Z,96418.25
2023-01-18T19:03:51.982Z,96420.22
2023-01-18T19:06:20.550Z,96411.13
2023-01-18T19:08:47.575Z,96401.47
2023-01-18T19:11:15.685Z,96400.06
2023-01-18T19:13:43.388Z,96395.44
2023-01-18T19:16:10.583Z,96397.66
2023-01-18T19:18:37.343Z,96394.66
2023-01-18T19:21:04.772Z,96398.75
2023-01-18T19:23:31.618Z,96407.72
2023-01-18T19:25:58.894Z,96391.16
2023-01-18T19:28:25.581Z,96389.28
2023-01-18T19:30:52.221Z,96382.16
2023-01-18T19:33:18.807Z,96363.13
2023-01-18T19:35:46.119Z,96373.25
2023-01-18T19:38:13.589Z,96368.28
2023-01-18T19:40:40.198Z,96376.50
2023-01-18T19:43:09.323Z,96378.59
2023-01-18T19:45:37.617Z,96380.97
2023-01-18T19:48:05.225Z,96386.22
2023-01-18T19:50:32.113Z,96389.09
2023-01-18T19:52:59.737Z,96388.38
2023-01-18T19:55:26.594Z,96389.97
2023-01-18T19:57:55.924Z,96395.84
2023-01-18T20:00:22.907Z,96407.69
2023-01-18T20:02:49.635Z,96421.97
2023-01-18T20:05:16.790Z,96426.81
2023-01-18T20:07:43.564Z,96426.56
2023-01-18T20:10:10.912Z,96433.44
2023-01-18T20:12:38.448Z,96441.22
2023-01-18T20:15:06.296Z,96445.34
2023-01-18T20:17:33.179Z,96451.94
2023-01-18T20:19:59.853Z,96451.19
2023-01-18T20:22:26.569Z,96459.53
2023-01-18T20:24:53.565Z,96460.66
2023-01-18T20:27:23.071Z,96451.19
2023-01-18T20:29:53.337Z,96449.78
2023-01-18T20:32:19.991Z,96435.84
2023-01-18T20:34:47.442Z,96435.38
2023-01-18T20:37:15.477Z,96434.72
2023-01-18T20:39:42.605Z,96419.09
2023-01-18T20:42:09.437Z,96415.50
2023-01-18T20:44:36.133Z,96402.69
2023-01-18T20:47:03.241Z,96400.19
2023-01-18T20:49:37.768Z,96394.06
2023-01-18T20:52:06.868Z,96393.00
2023-01-18T20:54:35.679Z,96388.38
2023-01-18T20:57:03.473Z,96378.75
2023-01-18T20:59:30.159Z,96379.56
2023-01-18T21:01:57.028Z,96389.63
2023-01-18T21:04:24.814Z,96392.19
2023-01-18T21:06:51.440Z,96390.47
2023-01-18T21:09:18.220Z,96383.75
2023-01-18T21:11:45.011Z,96377.91
2023-01-18T21:14:12.793Z,96386.53
2023-01-18T21:16:39.436Z,96389.75
2023-01-18T21:19:06.136Z,96396.47
2023-01-18T21:21:32.872Z,96402.34
2023-01-18T21:24:00.153Z,96390.91
2023-01-18T21:26:27.087Z,96396.16
2023-01-18T21:28:54.232Z,96369.72
2023-01-18T21:31:21.639Z,96367.19
2023-01-18T21:33:48.306Z,96379.56
2023-01-18T21:36:20.350Z,96369.59
2023-01-18T21:38:47.271Z,96369.66
2023-01-18T21:41:32.537Z,96371.41
2023-01-18T21:44:21.097Z,96367.47
2023-01-18T21:46:49.335Z,96367.94
2023-01-18T21:52:39.833Z,96377.16
2023-01-18T21:55:06.845Z,96366.56
2023-01-18T21:57:33.430Z,96358.75
2023-01-18T22:00:00.036Z,96370.16
2023-01-18T22:02:26.737Z,96345.66
2023-01-18T22:05:00.198Z,96334.97
2023-01-18T22:07:28.150Z,96332.56
2023-01-18T22:10:04.163Z,96329.19
2023-01-18T22:12:33.432Z,96306.66
2023-01-18T22:15:02.141Z,96304.50
2023-01-18T22:17:29.158Z,96294.19
2023-01-18T22:19:58.228Z,96289.28
2023-01-18T22:22:24.982Z,96293.00
2023-01-18T22:24:51.888Z,96306.34
2023-01-18T22:27:18.517Z,96293.97
2023-01-18T22:29:45.426Z,96295.63
2023-01-18T22:32:12.165Z,96290.50
2023-01-18T22:34:38.838Z,96290.50
2023-01-18T22:37:05.830Z,96286.00
2023-01-18T22:39:32.472Z,96287.69
2023-01-18T22:41:59.157Z,96281.59
2023-01-18T22:44:25.845Z,96276.50
2023-01-18T22:46:52.484Z,96273.25
2023-01-18T22:49:19.194Z,96274.09
2023-01-18T22:51:45.861Z,96274.94
2023-01-18T22:54:14.914Z,96264.25
2023-01-18T22:56:41.617Z,96268.53
2023-01-18T22:59:08.788Z,96269.38
2023-01-18T23:01:35.532Z,96277.66
2023-01-18T23:04:03.918Z,96275.94
2023-01-18T23:06:48.002Z,96270.56
2023-01-18T23:09:16.265Z,96266.97
2023-01-18T23:11:44.895Z,96269.66
2023-01-18T23:14:30.511Z,96267.06
2023-01-18T23:17:15.379Z,96276.72
2023-01-18T23:19:42.016Z,96269.00
2023-01-18T23:22:08.638Z,96270.69
2023-01-18T23:24:36.640Z,96247.22
2023-01-18T23:27:05.556Z,96253.44
2023-01-18T23:29:32.229Z,96254.38
2023-01-18T23:31:59.063Z,96244.25
2023-01-18T23:34:26.051Z,96236.31
2023-01-18T23:36:53.100Z,96241.69
2023-01-18T23:39:38.773Z,96234.81
2023-01-18T23:42:24.072Z,96223.59
2023-01-18T23:45:09.250Z,96231.59
2023-01-18T23:47:54.636Z,96246.44
2023-01-18T23:50:40.088Z,96243.72
2023-01-18T23:53:30.501Z,96243.69
2023-01-18T23:55:57.683Z,96226.28
2023-01-18T23:58:27.390Z,96231.50
